sensor_id;sensor_type;location;lat;lon;timestamp;pressure;altitude;pressure_sealevel;temperature;humidity
48796;BME280;34607;48.520;-1.330;2022-11-11T07:46:13;101311.31;;;9.45;100.00
48796;BME280;34607;48.520;-1.330;2022-11-11T07:48:59;101308.78;;;9.46;100.00
48796;BME280;34607;48.520;-1.330;2022-11-11T07:51:44;101341.78;;;9.53;100.00
48796;BME280;34607;48.520;-1.330;2022-11-11T07:54:30;101346.84;;;9.50;100.00
48796;BME280;34607;48.520;-1.330;2022-11-11T07:57:16;101337.81;;;9.39;100.00
48796;BME280;34607;48.520;-1.330;2022-11-11T08:00:03;101335.66;;;9.27;100.00
48796;BME280;34607;48.520;-1.330;2022-11-11T08:02:50;101353.91;;;9.32;100.00
48796;BME280;34607;48.520;-1.330;2022-11-11T08:05:36;101368.47;;;9.30;100.00
48796;BME280;34607;48.520;-1.330;2022-11-11T08:08:22;101376.72;;;9.19;100.00
48796;BME280;34607;48.520;-1.330;2022-11-11T08:11:09;101371.53;;;9.19;100.00
48796;BME280;34607;48.520;-1.330;2022-11-11T08:13:55;101358.28;;;9.10;100.00
48796;BME280;34607;48.520;-1.330;2022-11-11T08:16:39;101373.47;;;9.03;100.00
48796;BME280;34607;48.520;-1.330;2022-11-11T08:19:26;101363.19;;;9.04;100.00
48796;BME280;34607;48.520;-1.330;2022-11-11T08:22:12;101359.88;;;9.07;100.00
48796;BME280;34607;48.520;-1.330;2022-11-11T08:24:58;101382.88;;;9.23;100.00
48796;BME280;34607;48.520;-1.330;2022-11-11T08:27:43;101365.25;;;9.13;100.00
48796;BME280;34607;48.520;-1.330;2022-11-11T08:30:29;101384.72;;;9.26;100.00
48796;BME280;34607;48.520;-1.330;2022-11-11T08:33:15;101384.41;;;9.18;100.00
48796;BME280;34607;48.520;-1.330;2022-11-11T08:36:03;101396.91;;;9.30;100.00
48796;BME280;34607;48.520;-1.330;2022-11-11T08:38:51;101401.28;;;9.31;100.00
48796;BME280;34607;48.520;-1.330;2022-11-11T08:41:37;101398.63;;;9.29;100.00
48796;BME280;34607;48.520;-1.330;2022-11-11T08:44:22;101398.69;;;9.31;100.00
48796;BME280;34607;48.520;-1.330;2022-11-11T08:47:08;101396.97;;;9.31;100.00
48796;BME280;34607;48.520;-1.330;2022-11-11T08:49:54;101400.38;;;9.30;100.00
48796;BME280;34607;48.520;-1.330;2022-11-11T08:52:46;101402.09;;;9.30;100.00
48796;BME280;34607;48.520;-1.330;2022-11-11T08:55:32;101398.75;;;9.32;100.00
48796;BME280;34607;48.520;-1.330;2022-11-11T08:58:18;101405.50;;;9.29;100.00
48796;BME280;34607;48.520;-1.330;2022-11-11T09:01:08;101390.56;;;9.22;100.00
48796;BME280;34607;48.520;-1.330;2022-11-11T09:03:54;101404.91;;;9.36;100.00
48796;BME280;34607;48.520;-1.330;2022-11-11T09:06:40;101388.97;;;9.25;100.00
48796;BME280;34607;48.520;-1.330;2022-11-11T09:09:29;101416.19;;;9.38;100.00
48796;BME280;34607;48.520;-1.330;2022-11-11T09:12:15;101410.78;;;9.32;100.00
48796;BME280;34607;48.520;-1.330;2022-11-11T09:15:01;101422.88;;;9.33;100.00
48796;BME280;34607;48.520;-1.330;2022-11-11T09:17:46;101425.59;;;9.36;100.00
48796;BME280;34607;48.520;-1.330;2022-11-11T09:20:32;101432.75;;;9.43;100.00
48796;BME280;34607;48.520;-1.330;2022-11-11T09:23:18;101438.09;;;9.48;100.00
48796;BME280;34607;48.520;-1.330;2022-11-11T09:26:05;101445.22;;;9.53;100.00
48796;BME280;34607;48.520;-1.330;2022-11-11T09:28:51;101434.09;;;9.56;100.00
48796;BME280;34607;48.520;-1.330;2022-11-11T09:31:38;101423.00;;;9.59;100.00
48796;BME280;34607;48.520;-1.330;2022-11-11T09:34:24;101435.31;;;9.66;100.00
48796;BME280;34607;48.520;-1.330;2022-11-11T09:37:10;101433.66;;;9.68;100.00
48796;BME280;34607;48.520;-1.330;2022-11-11T09:39:55;101444.75;;;9.64;100.00
48796;BME280;34607;48.520;-1.330;2022-11-11T09:42:48;101441.28;;;9.63;100.00
48796;BME280;34607;48.520;-1.330;2022-11-11T09:45:46;101447.06;;;9.57;100.00
48796;BME280;34607;48.520;-1.330;2022-11-11T09:48:49;101435.75;;;9.54;100.00
48796;BME280;34607;48.520;-1.330;2022-11-11T09:51:42;101432.34;;;9.55;100.00
48796;BME280;34607;48.520;-1.330;2022-11-11T09:54:34;101433.63;;;9.44;100.00
48796;BME280;34607;48.520;-1.330;2022-11-11T09:57:28;101450.06;;;9.46;100.00
48796;BME280;34607;48.520;-1.330;2022-11-11T10:00:21;101442.44;;;9.49;100.00
48796;BME280;34607;48.520;-1.330;2022-11-11T10:03:13;101442.38;;;9.47;100.00
48796;BME280;34607;48.520;-1.330;2022-11-11T10:06:05;101430.16;;;9.43;100.00
48796;BME280;34607;48.520;-1.330;2022-11-11T10:08:57;101458.19;;;9.55;100.00
48796;BME280;34607;48.520;-1.330;2022-11-11T10:11:50;101404.53;;;9.27;100.00
48796;BME280;34607;48.520;-1.330;2022-11-11T10:14:39;101421.53;;;9.43;100.00
48796;BME280;34607;48.520;-1.330;2022-11-11T10:17:33;101431.09;;;9.45;100.00
48796;BME280;34607;48.520;-1.330;2022-11-11T10:20:24;101446.63;;;9.45;100.00
48796;BME280;34607;48.520;-1.330;2022-11-11T10:23:14;101459.13;;;9.57;100.00
48796;BME280;34607;48.520;-1.330;2022-11-11T10:26:02;101476.38;;;9.56;100.00
48796;BME280;34607;48.520;-1.330;2022-11-11T10:28:52;101474.84;;;9.62;100.00
48796;BME280;34607;48.520;-1.330;2022-11-11T10:31:39;101468.81;;;9.63;100.00
48796;BME280;34607;48.520;-1.330;2022-11-11T10:34:32;101445.09;;;9.50;100.00
48796;BME280;34607;48.520;-1.330;2022-11-11T10:37:20;101451.56;;;9.62;100.00
48796;BME280;34607;48.520;-1.330;2022-11-11T10:40:16;101447.06;;;9.57;100.00
48796;BME280;34607;48.520;-1.330;2022-11-11T10:43:02;101460.00;;;9.57;100.00
48796;BME280;34607;48.520;-1.330;2022-11-11T10:45:53;101465.09;;;9.54;100.00
48796;BME280;34607;48.520;-1.330;2022-11-11T10:48:47;101410.53;;;9.48;100.00
48796;BME280;34607;48.520;-1.330;2022-11-11T10:51:42;101442.13;;;9.86;100.00
48796;BME280;34607;48.520;-1.330;2022-11-11T10:54:37;101442.69;;;10.02;100.00
48796;BME280;34607;48.520;-1.330;2022-11-11T10:57:30;101444.66;;;10.09;100.00
48796;BME280;34607;48.520;-1.330;2022-11-11T11:00:19;101440.22;;;10.05;100.00
48796;BME280;34607;48.520;-1.330;2022-11-11T11:03:11;101421.03;;;10.24;100.00
48796;BME280;34607;48.520;-1.330;2022-11-11T11:06:04;101433.16;;;10.25;100.00
48796;BME280;34607;48.520;-1.330;2022-11-11T11:08:56;101421.81;;;10.21;100.00
48796;BME280;34607;48.520;-1.330;2022-11-11T11:11:49;101421.81;;;10.21;100.00
48796;BME280;34607;48.520;-1.330;2022-11-11T11:14:41;101406.63;;;10.06;100.00
48796;BME280;34607;48.520;-1.330;2022-11-11T11:17:33;101396.03;;;10.00;100.00
48796;BME280;34607;48.520;-1.330;2022-11-11T11:20:21;101418.41;;;9.98;100.00
48796;BME280;34607;48.520;-1.330;2022-11-11T11:23:07;101392.09;;;9.86;100.00
48796;BME280;34607;48.520;-1.330;2022-11-11T11:25:54;101425.78;;;10.11;100.00
48796;BME280;34607;48.520;-1.330;2022-11-11T11:28:53;101416.00;;;10.03;100.00
48796;BME280;34607;48.520;-1.330;2022-11-11T11:31:40;101419.38;;;10.02;100.00
48796;BME280;34607;48.520;-1.330;2022-11-11T11:34:51;101420.00;;;9.94;100.00
48796;BME280;34607;48.520;-1.330;2022-11-11T11:37:48;101387.03;;;9.65;100.00
48796;BME280;34607;48.520;-1.330;2022-11-11T11:40:45;101419.72;;;9.87;100.00
48796;BME280;34607;48.520;-1.330;2022-11-11T11:43:34;101405.09;;;9.87;100.00
48796;BME280;34607;48.520;-1.330;2022-11-11T11:46:26;101380.56;;;10.02;100.00
48796;BME280;34607;48.520;-1.330;2022-11-11T11:49:20;101406.75;;;10.59;100.00
48796;BME280;34607;48.520;-1.330;2022-11-11T11:52:15;101368.22;;;10.97;100.00
48796;BME280;34607;48.520;-1.330;2022-11-11T11:55:06;101385.66;;;11.03;100.00
48796;BME280;34607;48.520;-1.330;2022-11-11T11:58:08;101391.44;;;10.94;100.00
48796;BME280;34607;48.520;-1.330;2022-11-11T12:01:03;101396.41;;;10.88;100.00
48796;BME280;34607;48.520;-1.330;2022-11-11T12:04:08;101383.72;;;10.68;100.00
48796;BME280;34607;48.520;-1.330;2022-11-11T12:07:03;101357.22;;;10.50;100.00
48796;BME280;34607;48.520;-1.330;2022-11-11T12:09:57;101377.94;;;10.50;100.00
48796;BME280;34607;48.520;-1.330;2022-11-11T12:12:52;101350.75;;;10.37;100.00
48796;BME280;34607;48.520;-1.330;2022-11-11T12:15:47;101354.34;;;10.41;100.00
48796;BME280;34607;48.520;-1.330;2022-11-11T12:18:50;101360.13;;;10.88;100.00
48796;BME280;34607;48.520;-1.330;2022-11-11T12:21:53;101322.69;;;11.05;100.00
48796;BME280;34607;48.520;-1.330;2022-11-11T12:24:48;101340.84;;;11.36;100.00
48796;BME280;34607;48.520;-1.330;2022-11-11T12:27:37;101350.31;;;11.64;100.00
48796;BME280;34607;48.520;-1.330;2022-11-11T12:30:24;101313.91;;;11.61;100.00
48796;BME280;34607;48.520;-1.330;2022-11-11T12:33:32;101350.09;;;11.88;100.00
48796;BME280;34607;48.520;-1.330;2022-11-11T12:36:28;101325.06;;;11.90;100.00
48796;BME280;34607;48.520;-1.330;2022-11-11T12:39:32;101347.47;;;11.87;100.00
48796;BME280;34607;48.520;-1.330;2022-11-11T12:42:31;101336.66;;;11.71;100.00
48796;BME280;34607;48.520;-1.330;2022-11-11T12:45:22;101323.41;;;11.30;100.00
48796;BME280;34607;48.520;-1.330;2022-11-11T12:48:22;101313.75;;;10.96;100.00
48796;BME280;34607;48.520;-1.330;2022-11-11T12:51:18;101318.78;;;10.91;100.00
48796;BME280;34607;48.520;-1.330;2022-11-11T12:54:18;101310.44;;;11.01;100.00
48796;BME280;34607;48.520;-1.330;2022-11-11T12:57:15;101309.91;;;11.12;100.00
48796;BME280;34607;48.520;-1.330;2022-11-11T13:00:10;101277.16;;;10.85;100.00
48796;BME280;34607;48.520;-1.330;2022-11-11T13:03:17;101304.84;;;10.87;100.00
48796;BME280;34607;48.520;-1.330;2022-11-11T13:06:14;101306.75;;;10.93;100.00
48796;BME280;34607;48.520;-1.330;2022-11-11T13:09:32;101312.03;;;10.96;100.00
48796;BME280;34607;48.520;-1.330;2022-11-11T13:12:27;101310.25;;;10.94;100.00
48796;BME280;34607;48.520;-1.330;2022-11-11T13:15:18;101311.56;;;11.10;100.00
48796;BME280;34607;48.520;-1.330;2022-11-11T13:18:11;101292.56;;;11.09;100.00
48796;BME280;34607;48.520;-1.330;2022-11-11T13:21:02;101303.41;;;11.26;100.00
48796;BME280;34607;48.520;-1.330;2022-11-11T13:23:48;101299.88;;;11.24;100.00
48796;BME280;34607;48.520;-1.330;2022-11-11T13:26:40;101287.56;;;11.17;100.00
48796;BME280;34607;48.520;-1.330;2022-11-11T13:32:53;101296.56;;;10.99;100.00
48796;BME280;34607;48.520;-1.330;2022-11-11T13:35:43;101279.59;;;10.80;100.00
48796;BME280;34607;48.520;-1.330;2022-11-11T13:38:34;101304.19;;;10.95;100.00
48796;BME280;34607;48.520;-1.330;2022-11-11T13:41:23;101289.91;;;10.79;100.00
48796;BME280;34607;48.520;-1.330;2022-11-11T13:44:21;101288.69;;;10.67;100.00
48796;BME280;34607;48.520;-1.330;2022-11-11T13:47:13;101301.41;;;10.60;100.00
48796;BME280;34607;48.520;-1.330;2022-11-11T13:50:04;101294.41;;;10.56;100.00
48796;BME280;34607;48.520;-1.330;2022-11-11T13:52:56;101286.16;;;10.69;100.00
48796;BME280;34607;48.520;-1.330;2022-11-11T13:55:45;101274.81;;;10.65;100.00
48796;BME280;34607;48.520;-1.330;2022-11-11T13:58:33;101260.84;;;10.60;100.00
48796;BME280;34607;48.520;-1.330;2022-11-11T14:01:22;101261.16;;;10.70;100.00
48796;BME280;34607;48.520;-1.330;2022-11-11T14:04:10;101264.47;;;10.94;100.00
48796;BME280;34607;48.520;-1.330;2022-11-11T14:06:55;101277.00;;;11.09;100.00
48796;BME280;34607;48.520;-1.330;2022-11-11T14:09:58;101274.63;;;11.17;100.00
48796;BME280;34607;48.520;-1.330;2022-11-11T14:12:47;101253.44;;;11.01;100.00
48796;BME280;34607;48.520;-1.330;2022-11-11T14:15:43;101268.09;;;11.30;100.00
48796;BME280;34607;48.520;-1.330;2022-11-11T14:18:36;101268.69;;;11.21;100.00
48796;BME280;34607;48.520;-1.330;2022-11-11T14:21:41;101266.44;;;11.03;100.00
48796;BME280;34607;48.520;-1.330;2022-11-11T14:24:36;101265.69;;;10.77;100.00
48796;BME280;34607;48.520;-1.330;2022-11-11T14:27:26;101270.72;;;10.72;100.00
48796;BME280;34607;48.520;-1.330;2022-11-11T14:30:32;101271.69;;;10.76;100.00
48796;BME280;34607;48.520;-1.330;2022-11-11T14:33:29;101273.34;;;10.74;100.00
48796;BME280;34607;48.520;-1.330;2022-11-11T14:36:24;101271.72;;;10.77;100.00
48796;BME280;34607;48.520;-1.330;2022-11-11T14:39:23;101234.19;;;10.63;100.00
48796;BME280;34607;48.520;-1.330;2022-11-11T14:42:43;101243.09;;;10.73;100.00
48796;BME280;34607;48.520;-1.330;2022-11-11T14:45:59;101268.69;;;10.91;100.00
48796;BME280;34607;48.520;-1.330;2022-11-11T14:48:55;101270.44;;;10.92;100.00
48796;BME280;34607;48.520;-1.330;2022-11-11T14:51:49;101279.88;;;10.90;100.00
48796;BME280;34607;48.520;-1.330;2022-11-11T14:54:42;101258.06;;;10.83;100.00
48796;BME280;34607;48.520;-1.330;2022-11-11T14:57:34;101266.97;;;10.91;100.00
48796;BME280;34607;48.520;-1.330;2022-11-11T15:00:24;101206.50;;;10.62;100.00
48796;BME280;34607;48.520;-1.330;2022-11-11T15:03:14;101257.59;;;10.96;100.00
48796;BME280;34607;48.520;-1.330;2022-11-11T15:06:05;101263.72;;;10.98;100.00
48796;BME280;34607;48.520;-1.330;2022-11-11T15:09:00;101249.84;;;10.96;100.00
48796;BME280;34607;48.520;-1.330;2022-11-11T15:11:52;101260.38;;;11.02;100.00
48796;BME280;34607;48.520;-1.330;2022-11-11T15:14:49;101251.47;;;10.93;100.00
48796;BME280;34607;48.520;-1.330;2022-11-11T15:17:48;101251.59;;;10.97;100.00
48796;BME280;34607;48.520;-1.330;2022-11-11T15:20:51;101257.69;;;10.99;100.00
48796;BME280;34607;48.520;-1.330;2022-11-11T15:23:44;101265.47;;;10.99;100.00
48796;BME280;34607;48.520;-1.330;2022-11-11T15:26:42;101253.19;;;10.92;100.00
48796;BME280;34607;48.520;-1.330;2022-11-11T15:29:46;101248.78;;;10.90;100.00
48796;BME280;34607;48.520;-1.330;2022-11-11T15:32:46;101259.28;;;10.94;100.00
48796;BME280;34607;48.520;-1.330;2022-11-11T15:35:38;101239.69;;;10.74;100.00
48796;BME280;34607;48.520;-1.330;2022-11-11T15:38:26;101246.78;;;10.81;100.00
48796;BME280;34607;48.520;-1.330;2022-11-11T15:41:21;101246.78;;;10.81;100.00
48796;BME280;34607;48.520;-1.330;2022-11-11T15:44:16;101248.50;;;10.80;100.00
48796;BME280;34607;48.520;-1.330;2022-11-11T15:47:04;101241.44;;;10.75;100.00
48796;BME280;34607;48.520;-1.330;2022-11-11T15:49:51;101227.28;;;10.63;100.00
48796;BME280;34607;48.520;-1.330;2022-11-11T15:52:37;101255.31;;;10.77;100.00
48796;BME280;34607;48.520;-1.330;2022-11-11T15:55:24;101217.56;;;10.56;100.00
48796;BME280;34607;48.520;-1.330;2022-11-11T15:58:13;101248.25;;;10.71;100.00
48796;BME280;34607;48.520;-1.330;2022-11-11T16:01:04;101232.25;;;10.56;100.00
48796;BME280;34607;48.520;-1.330;2022-11-11T16:03:51;101262.72;;;10.64;100.00
48796;BME280;34607;48.520;-1.330;2022-11-11T16:06:37;101246.81;;;10.52;100.00
48796;BME280;34607;48.520;-1.330;2022-11-11T16:09:24;101257.28;;;10.57;100.00
48796;BME280;34607;48.520;-1.330;2022-11-11T16:12:15;101231.78;;;10.40;100.00
48796;BME280;34607;48.520;-1.330;2022-11-11T16:15:06;101252.66;;;10.46;100.00
48796;BME280;34607;48.520;-1.330;2022-11-11T16:17:58;101234.16;;;10.34;100.00
48796;BME280;34607;48.520;-1.330;2022-11-11T16:20:49;101220.91;;;10.25;100.00
48796;BME280;34607;48.520;-1.330;2022-11-11T16:23:36;101221.66;;;10.22;100.00
48796;BME280;34607;48.520;-1.330;2022-11-11T16:26:23;101237.53;;;10.32;100.00
48796;BME280;34607;48.520;-1.330;2022-11-11T16:29:14;101234.72;;;10.25;100.00
48796;BME280;34607;48.520;-1.330;2022-11-11T16:32:00;101232.88;;;10.21;100.00
48796;BME280;34607;48.520;-1.330;2022-11-11T16:34:49;101240.72;;;10.24;100.00
48796;BME280;34607;48.520;-1.330;2022-11-11T16:37:49;101237.94;;;10.18;100.00
48796;BME280;34607;48.520;-1.330;2022-11-11T16:40:40;101227.59;;;10.18;100.00
48796;BME280;34607;48.520;-1.330;2022-11-11T16:43:28;101230.06;;;10.15;100.00
48796;BME280;34607;48.520;-1.330;2022-11-11T16:46:38;101233.41;;;10.11;100.00
48796;BME280;34607;48.520;-1.330;2022-11-11T16:49:28;101230.72;;;10.08;100.00
48796;BME280;34607;48.520;-1.330;2022-11-11T16:52:18;101220.94;;;9.99;100.00
48796;BME280;34607;48.520;-1.330;2022-11-11T16:55:06;101232.22;;;10.01;100.00
48796;BME280;34607;48.520;-1.330;2022-11-11T16:57:53;101233.09;;;10.02;100.00
48796;BME280;34607;48.520;-1.330;2022-11-11T17:00:39;101221.47;;;9.89;100.00
48796;BME280;34607;48.520;-1.330;2022-11-11T17:03:26;101230.16;;;9.91;100.00
48796;BME280;34607;48.520;-1.330;2022-11-11T17:06:12;101231.75;;;9.87;100.00
48796;BME280;34607;48.520;-1.330;2022-11-11T17:08:59;101243.16;;;9.92;100.00
48796;BME280;34607;48.520;-1.330;2022-11-11T17:11:44;101252.47;;;9.87;100.00
48796;BME280;34607;48.520;-1.330;2022-11-11T17:14:32;101254.00;;;9.82;100.00
48796;BME280;34607;48.520;-1.330;2022-11-11T17:17:19;101238.91;;;9.69;100.00
48796;BME280;34607;48.520;-1.330;2022-11-11T17:20:07;101258.91;;;9.74;100.00
48796;BME280;34607;48.520;-1.330;2022-11-11T17:22:55;101257.09;;;9.72;100.00
48796;BME280;34607;48.520;-1.330;2022-11-11T17:25:42;101263.09;;;9.71;100.00
48796;BME280;34607;48.520;-1.330;2022-11-11T17:28:30;101255.03;;;9.62;100.00
48796;BME280;34607;48.520;-1.330;2022-11-11T17:31:16;101271.59;;;9.67;100.00
48796;BME280;34607;48.520;-1.330;2022-11-11T17:34:05;101279.28;;;9.65;100.00
48796;BME280;34607;48.520;-1.330;2022-11-11T17:36:51;101287.75;;;9.61;100.00
48796;BME280;34607;48.520;-1.330;2022-11-11T17:39:36;101265.75;;;9.48;100.00
48796;BME280;34607;48.520;-1.330;2022-11-11T17:42:29;101261.34;;;9.46;100.00
48796;BME280;34607;48.520;-1.330;2022-11-11T17:45:15;101288.34;;;9.54;100.00
48796;BME280;34607;48.520;-1.330;2022-11-11T17:48:01;101293.59;;;9.55;100.00
48796;BME280;34607;48.520;-1.330;2022-11-11T17:50:47;101293.53;;;9.54;100.00
48796;BME280;34607;48.520;-1.330;2022-11-11T17:53:33;101295.19;;;9.52;100.00
48796;BME280;34607;48.520;-1.330;2022-11-11T17:56:19;101295.91;;;9.48;100.00
48796;BME280;34607;48.520;-1.330;2022-11-11T17:59:06;101299.25;;;9.45;100.00
48796;BME280;34607;48.520;-1.330;2022-11-11T18:01:52;101300.91;;;9.43;100.00
48796;BME280;34607;48.520;-1.330;2022-11-11T18:04:38;101307.13;;;9.48;100.00
48796;BME280;34607;48.520;-1.330;2022-11-11T18:07:24;101313.16;;;9.49;100.00
48796;BME280;34607;48.520;-1.330;2022-11-11T18:10:11;101310.44;;;9.44;100.00
48796;BME280;34607;48.520;-1.330;2022-11-11T18:12:57;101312.19;;;9.45;100.00
48796;BME280;34607;48.520;-1.330;2022-11-11T18:15:44;101324.28;;;9.46;100.00
48796;BME280;34607;48.520;-1.330;2022-11-11T18:18:30;101329.47;;;9.46;100.00
48796;BME280;34607;48.520;-1.330;2022-11-11T18:21:16;101326.16;;;9.50;100.00
48796;BME280;34607;48.520;-1.330;2022-11-11T18:24:04;101310.38;;;9.43;100.00
48796;BME280;34607;48.520;-1.330;2022-11-11T18:26:50;101320.78;;;9.44;100.00
48796;BME280;34607;48.520;-1.330;2022-11-11T18:29:36;101321.59;;;9.43;100.00
48796;BME280;34607;48.520;-1.330;2022-11-11T18:32:23;101308.34;;;9.34;100.00
48796;BME280;34607;48.520;-1.330;2022-11-11T18:35:09;101331.00;;;9.41;100.00
48796;BME280;34607;48.520;-1.330;2022-11-11T18:37:54;101330.09;;;9.41;100.00
48796;BME280;34607;48.520;-1.330;2022-11-11T18:40:40;101327.56;;;9.42;100.00
48796;BME280;34607;48.520;-1.330;2022-11-11T18:43:26;101334.50;;;9.43;100.00
48796;BME280;34607;48.520;-1.330;2022-11-11T18:46:13;101336.38;;;9.47;100.00
48796;BME280;34607;48.520;-1.330;2022-11-11T18:49:03;101335.44;;;9.45;100.00
48796;BME280;34607;48.520;-1.330;2022-11-11T18:51:49;101345.72;;;9.44;100.00
48796;BME280;34607;48.520;-1.330;2022-11-11T18:54:34;101339.50;;;9.38;100.00
48796;BME280;34607;48.520;-1.330;2022-11-11T18:57:20;101340.41;;;9.39;100.00
48796;BME280;34607;48.520;-1.330;2022-11-11T19:00:07;101336.97;;;9.40;100.00
48796;BME280;34607;48.520;-1.330;2022-11-11T19:02:53;101338.56;;;9.36;100.00
48796;BME280;34607;48.520;-1.330;2022-11-11T19:05:40;101341.16;;;9.36;100.00
48796;BME280;34607;48.520;-1.330;2022-11-11T19:08:26;101341.09;;;9.35;100.00
48796;BME280;34607;48.520;-1.330;2022-11-11T19:11:12;101341.09;;;9.35;100.00
48796;BME280;34607;48.520;-1.330;2022-11-11T19:13:58;101334.19;;;9.34;100.00
48796;BME280;34607;48.520;-1.330;2022-11-11T19:16:44;101332.59;;;9.37;100.00
48796;BME280;34607;48.520;-1.330;2022-11-11T19:19:29;101320.47;;;9.36;100.00
48796;BME280;34607;48.520;-1.330;2022-11-11T19:22:16;101324.13;;;9.42;100.00
48796;BME280;34607;48.520;-1.330;2022-11-11T19:25:02;101323.31;;;9.43;100.00
48796;BME280;34607;48.520;-1.330;2022-11-11T19:27:51;101324.13;;;9.42;100.00
48796;BME280;34607;48.520;-1.330;2022-11-11T19:30:37;101322.31;;;9.39;100.00
48796;BME280;34607;48.520;-1.330;2022-11-11T19:33:23;101318.81;;;9.38;100.00
48796;BME280;34607;48.520;-1.330;2022-11-11T19:36:10;101320.53;;;9.38;100.00
48796;BME280;34607;48.520;-1.330;2022-11-11T19:38:59;101308.34;;;9.34;100.00
48796;BME280;34607;48.520;-1.330;2022-11-11T19:41:45;101308.34;;;9.34;100.00
48796;BME280;34607;48.520;-1.330;2022-11-11T19:44:31;101311.81;;;9.34;100.00
48796;BME280;34607;48.520;-1.330;2022-11-11T19:47:17;101302.31;;;9.35;100.00
48796;BME280;34607;48.520;-1.330;2022-11-11T19:50:03;101310.94;;;9.35;100.00
48796;BME280;34607;48.520;-1.330;2022-11-11T19:52:48;101311.00;;;9.37;100.00
48796;BME280;34607;48.520;-1.330;2022-11-11T19:55:35;101314.56;;;9.39;100.00
48796;BME280;34607;48.520;-1.330;2022-11-11T19:58:21;101311.00;;;9.37;100.00
48796;BME280;34607;48.520;-1.330;2022-11-11T20:01:07;101313.53;;;9.35;100.00
48796;BME280;34607;48.520;-1.330;2022-11-11T20:03:54;101313.50;;;9.34;100.00
48796;BME280;34607;48.520;-1.330;2022-11-11T20:06:40;101296.97;;;9.29;100.00
48796;BME280;34607;48.520;-1.330;2022-11-11T20:09:26;101301.34;;;9.31;100.00
48796;BME280;34607;48.520;-1.330;2022-11-11T20:12:13;101303.19;;;9.35;100.00
48796;BME280;34607;48.520;-1.330;2022-11-11T20:14:59;101301.41;;;9.33;100.00
48796;BME280;34607;48.520;-1.330;2022-11-11T20:17:45;101309.88;;;9.29;100.00
48796;BME280;34607;48.520;-1.330;2022-11-11T20:20:31;101294.56;;;9.11;100.00
48796;BME280;34607;48.520;-1.330;2022-11-11T20:23:16;101306.25;;;9.24;100.00
48796;BME280;34607;48.520;-1.330;2022-11-11T20:26:04;101309.56;;;9.21;100.00
48796;BME280;34607;48.520;-1.330;2022-11-11T20:28:55;101314.88;;;9.24;100.00
48796;BME280;34607;48.520;-1.330;2022-11-11T20:31:41;101312.94;;;9.18;100.00
48796;BME280;34607;48.520;-1.330;2022-11-11T20:34:27;101312.09;;;9.19;100.00
48796;BME280;34607;48.520;-1.330;2022-11-11T20:37:12;101298.00;;;9.11;100.00
48796;BME280;34607;48.520;-1.330;2022-11-11T20:39:58;101319.97;;;9.23;100.00
48796;BME280;34607;48.520;-1.330;2022-11-11T20:42:44;101311.97;;;9.16;100.00
48796;BME280;34607;48.520;-1.330;2022-11-11T20:45:31;101314.56;;;9.16;100.00
48796;BME280;34607;48.520;-1.330;2022-11-11T20:48:16;101313.69;;;9.16;100.00
48796;BME280;34607;48.520;-1.330;2022-11-11T20:51:04;101304.06;;;9.12;100.00
48796;BME280;34607;48.520;-1.330;2022-11-11T20:53:54;101310.19;;;9.14;100.00
48796;BME280;34607;48.520;-1.330;2022-11-11T20:56:40;101307.53;;;9.12;100.00
48796;BME280;34607;48.520;-1.330;2022-11-11T20:59:26;101313.50;;;9.11;100.00
48796;BME280;34607;48.520;-1.330;2022-11-11T21:02:13;101307.72;;;9.17;100.00
48796;BME280;34607;48.520;-1.330;2022-11-11T21:04:58;101311.91;;;9.15;100.00
48796;BME280;34607;48.520;-1.330;2022-11-11T21:07:47;101275.94;;;8.97;100.00
48796;BME280;34607;48.520;-1.330;2022-11-11T21:10:33;101317.06;;;9.13;100.00
48796;BME280;34607;48.520;-1.330;2022-11-11T21:13:18;101312.81;;;9.15;100.00
48796;BME280;34607;48.520;-1.330;2022-11-11T21:16:05;101306.81;;;9.16;100.00
48796;BME280;34607;48.520;-1.330;2022-11-11T21:18:53;101306.06;;;9.19;100.00
48796;BME280;34607;48.520;-1.330;2022-11-11T21:21:39;101301.88;;;9.23;100.00
48796;BME280;34607;48.520;-1.330;2022-11-11T21:24:27;101296.72;;;9.23;100.00
48796;BME280;34607;48.520;-1.330;2022-11-11T21:27:12;101301.16;;;9.27;100.00
48796;BME280;34607;48.520;-1.330;2022-11-11T21:29:58;101299.53;;;9.29;100.00
48796;BME280;34607;48.520;-1.330;2022-11-11T21:32:44;101294.25;;;9.26;100.00
48796;BME280;34607;48.520;-1.330;2022-11-11T21:35:32;101301.22;;;9.28;100.00
48796;BME280;34607;48.520;-1.330;2022-11-11T21:38:18;101297.09;;;9.33;100.00
48796;BME280;34607;48.520;-1.330;2022-11-11T21:41:05;101288.66;;;9.37;100.00
48796;BME280;34607;48.520;-1.330;2022-11-11T21:43:52;101291.19;;;9.36;100.00
48796;BME280;34607;48.520;-1.330;2022-11-11T21:46:38;101300.91;;;9.43;100.00
48796;BME280;34607;48.520;-1.330;2022-11-11T21:49:24;101289.91;;;9.49;100.00
48796;BME280;34607;48.520;-1.330;2022-11-11T21:52:11;101294.38;;;9.53;100.00
48796;BME280;34607;48.520;-1.330;2022-11-11T21:54:56;101297.94;;;9.56;100.00
48796;BME280;34607;48.520;-1.330;2022-11-11T21:57:42;101299.00;;;9.62;100.00
48796;BME280;34607;48.520;-1.330;2022-11-11T22:00:27;101290.34;;;9.61;100.00
48796;BME280;34607;48.520;-1.330;2022-11-11T22:03:13;101302.75;;;9.70;100.00
48796;BME280;34607;48.520;-1.330;2022-11-11T22:06:04;101289.06;;;9.74;100.00
48796;BME280;34607;48.520;-1.330;2022-11-11T22:08:53;101276.91;;;9.71;100.00
48796;BME280;34607;48.520;-1.330;2022-11-11T22:11:39;101299.72;;;9.83;100.00
48796;BME280;34607;48.520;-1.330;2022-11-11T22:14:25;101292.94;;;9.85;100.00
48796;BME280;34607;48.520;-1.330;2022-11-11T22:17:10;101292.13;;;9.88;100.00
48796;BME280;34607;48.520;-1.330;2022-11-11T22:19:56;101287.00;;;9.89;100.00